createdAt,value
2017-12-16T00:00:52.559Z,991.34
2017-12-16T00:01:52.490Z,991.40
2017-12-16T00:02:52.557Z,991.34
2017-12-16T00:03:52.498Z,991.38
2017-12-16T00:04:52.558Z,991.42
2017-12-16T00:05:52.490Z,991.43
2017-12-16T00:06:52.493Z,991.42
2017-12-16T00:07:52.489Z,991.42
2017-12-16T00:08:52.561Z,991.44
2017-12-16T00:09:52.509Z,991.42
2017-12-16T00:10:52.561Z,991.44
2017-12-16T00:11:52.489Z,991.47
2017-12-16T00:12:52.496Z,991.46
2017-12-16T00:13:52.492Z,991.47
2017-12-16T00:14:52.564Z,991.46
2017-12-16T00:15:52.568Z,991.51
2017-12-16T00:16:52.497Z,991.47
2017-12-16T00:17:52.564Z,991.45
2017-12-16T00:18:52.496Z,991.47
2017-12-16T00:19:52.565Z,991.47
2017-12-16T00:20:52.493Z,991.50
2017-12-16T00:21:52.568Z,991.54
2017-12-16T00:22:52.493Z,991.48
2017-12-16T00:23:52.568Z,991.49
2017-12-16T00:24:52.494Z,991.48
2017-12-16T00:25:52.573Z,991.46
2017-12-16T00:26:52.497Z,991.51
2017-12-16T00:27:52.570Z,991.53
2017-12-16T00:28:52.502Z,991.52
2017-12-16T00:29:52.570Z,991.49
2017-12-16T00:30:52.501Z,991.49
2017-12-16T00:31:52.579Z,991.51
2017-12-16T00:32:52.572Z,991.50
2017-12-16T00:33:52.514Z,991.49
2017-12-16T00:34:52.579Z,991.47
2017-12-16T00:35:52.515Z,991.47
2017-12-16T00:36:52.581Z,991.51
2017-12-16T00:37:52.511Z,991.49
2017-12-16T00:38:52.580Z,991.49
2017-12-16T00:39:52.513Z,991.54
2017-12-16T00:40:52.637Z,991.54
2017-12-16T00:41:52.512Z,991.57
2017-12-16T00:42:52.581Z,991.62
2017-12-16T00:43:52.518Z,991.60
2017-12-16T00:44:52.581Z,991.61
2017-12-16T00:45:52.521Z,991.58
2017-12-16T00:46:52.582Z,991.55
2017-12-16T00:47:52.514Z,991.55
2017-12-16T00:48:52.584Z,991.57
2017-12-16T00:49:52.518Z,991.58
2017-12-16T00:50:52.583Z,991.56
2017-12-16T00:51:52.519Z,991.58
2017-12-16T00:52:52.588Z,991.57
2017-12-16T00:53:52.536Z,991.59
2017-12-16T00:54:52.586Z,991.58
2017-12-16T00:55:52.539Z,991.62
2017-12-16T00:56:52.591Z,991.59
2017-12-16T00:57:52.522Z,991.61
2017-12-16T00:58:52.591Z,991.61
2017-12-16T00:59:52.524Z,991.62
2017-12-16T01:00:52.581Z,991.63
2017-12-16T01:01:52.582Z,991.62
2017-12-16T01:02:52.545Z,991.64
2017-12-16T01:03:52.519Z,991.67
2017-12-16T01:04:52.582Z,991.70
2017-12-16T01:05:52.499Z,991.68
2017-12-16T01:06:52.580Z,991.71
2017-12-16T01:07:52.593Z,991.72
2017-12-16T01:08:52.500Z,991.71
2017-12-16T01:09:52.548Z,991.74
2017-12-16T01:10:52.595Z,991.75
2017-12-16T01:11:52.521Z,991.70
2017-12-16T01:12:52.526Z,991.75
2017-12-16T01:13:52.599Z,991.72
2017-12-16T01:14:52.530Z,991.76
2017-12-16T01:15:52.481Z,991.74
2017-12-16T01:16:52.528Z,991.74
2017-12-16T01:17:52.612Z,991.75
2017-12-16T01:18:52.531Z,991.82
2017-12-16T01:19:52.599Z,991.85
2017-12-16T01:20:52.530Z,991.84
2017-12-16T01:21:52.548Z,991.86
2017-12-16T01:22:52.603Z,991.92
2017-12-16T01:23:52.536Z,991.90
2017-12-16T01:24:52.606Z,991.93
2017-12-16T01:25:52.539Z,991.99
2017-12-16T01:26:52.606Z,992.00
2017-12-16T01:27:52.545Z,992.03
2017-12-16T01:28:52.608Z,992.06
2017-12-16T01:29:52.613Z,992.00
2017-12-16T01:30:52.594Z,992.10
2017-12-16T01:31:52.543Z,992.10
2017-12-16T01:32:52.612Z,992.05
2017-12-16T01:33:52.542Z,992.07
2017-12-16T01:34:52.615Z,992.11
2017-12-16T01:35:52.545Z,992.15
2017-12-16T01:36:52.543Z,992.14
2017-12-16T01:37:52.612Z,992.17
2017-12-16T01:38:52.542Z,992.20
2017-12-16T01:39:52.612Z,992.20
2017-12-16T01:40:52.573Z,992.23
2017-12-16T01:41:52.594Z,992.21
2017-12-16T01:42:52.594Z,992.23
2017-12-16T01:43:52.540Z,992.27
2017-12-16T01:44:52.545Z,992.26
2017-12-16T01:45:52.510Z,992.27
2017-12-16T01:46:52.578Z,992.27
2017-12-16T01:47:52.570Z,992.30
2017-12-16T01:48:52.523Z,992.29
2017-12-16T01:49:52.511Z,992.26
2017-12-16T01:50:52.551Z,992.30
2017-12-16T01:51:52.622Z,992.30
2017-12-16T01:52:52.556Z,992.29
2017-12-16T01:53:52.623Z,992.26
2017-12-16T01:54:52.553Z,992.27
2017-12-16T01:55:52.512Z,992.31
2017-12-16T01:56:52.558Z,992.30
2017-12-16T01:57:52.625Z,992.33
2017-12-16T01:58:52.557Z,992.36
2017-12-16T01:59:52.626Z,992.37
2017-12-16T02:00:52.560Z,992.38
2017-12-16T02:01:52.627Z,992.39
2017-12-16T02:02:52.557Z,992.39
2017-12-16T02:03:52.628Z,992.41
2017-12-16T02:04:52.557Z,992.39
2017-12-16T02:05:52.629Z,992.37
2017-12-16T02:06:52.555Z,992.33
2017-12-16T02:07:52.632Z,992.37
2017-12-16T02:08:52.556Z,992.36
2017-12-16T02:09:52.560Z,992.36
2017-12-16T02:10:52.587Z,992.35
2017-12-16T02:11:52.561Z,992.34
2017-12-16T02:12:52.574Z,992.31
2017-12-16T02:13:52.609Z,992.34
2017-12-16T02:14:52.594Z,992.37
2017-12-16T02:15:52.563Z,992.39
2017-12-16T02:16:52.579Z,992.40
2017-12-16T02:17:52.563Z,992.36
2017-12-16T02:18:52.502Z,992.38
2017-12-16T02:19:52.561Z,992.42
2017-12-16T02:20:52.605Z,992.40
2017-12-16T02:21:52.604Z,992.42
2017-12-16T02:22:52.537Z,992.46
2017-12-16T02:23:52.632Z,992.46
2017-12-16T02:24:52.627Z,992.43
2017-12-16T02:25:52.589Z,992.46
2017-12-16T02:26:52.543Z,992.51
2017-12-16T02:27:52.608Z,992.49
2017-12-16T02:28:52.517Z,992.50
2017-12-16T02:29:52.611Z,992.50
2017-12-16T02:30:52.648Z,992.51
2017-12-16T02:31:52.578Z,992.50
2017-12-16T02:32:52.645Z,992.50
2017-12-16T02:33:52.582Z,992.56
2017-12-16T02:34:52.579Z,992.49
2017-12-16T02:35:52.649Z,992.53
2017-12-16T02:36:52.649Z,992.53
2017-12-16T02:37:52.576Z,992.50
2017-12-16T02:38:52.649Z,992.52
2017-12-16T02:39:52.582Z,992.52
2017-12-16T02:40:52.555Z,992.55
2017-12-16T02:41:52.527Z,992.60
2017-12-16T02:42:52.577Z,992.57
2017-12-16T02:43:52.532Z,992.57
2017-12-16T02:44:52.651Z,992.58
2017-12-16T02:45:52.533Z,992.60
2017-12-16T02:46:52.602Z,992.61
2017-12-16T02:47:52.534Z,992.59
2017-12-16T02:48:52.596Z,992.59
2017-12-16T02:49:52.555Z,992.58
2017-12-16T02:50:52.519Z,992.57
2017-12-16T02:51:52.542Z,992.56
2017-12-16T02:52:52.537Z,992.56
2017-12-16T02:53:52.538Z,992.53
2017-12-16T02:54:52.596Z,992.59
2017-12-16T02:55:52.589Z,992.58
2017-12-16T02:56:52.476Z,992.62
2017-12-16T02:57:52.481Z,992.60
2017-12-16T02:58:52.539Z,992.61
2017-12-16T02:59:52.592Z,992.62
2017-12-16T03:00:52.663Z,992.68
2017-12-16T03:01:52.592Z,992.63
2017-12-16T03:02:52.667Z,992.65
2017-12-16T03:03:52.599Z,992.62
2017-12-16T03:04:52.596Z,992.63
2017-12-16T03:05:52.666Z,992.61
2017-12-16T03:06:52.599Z,992.63
2017-12-16T03:07:52.667Z,992.67
2017-12-16T03:08:52.602Z,992.69
2017-12-16T03:09:52.672Z,992.70
2017-12-16T03:10:52.541Z,992.69
2017-12-16T03:11:52.548Z,992.75
2017-12-16T03:12:52.634Z,992.73
2017-12-16T03:13:52.568Z,992.72
2017-12-16T03:14:52.619Z,992.74
2017-12-16T03:15:52.548Z,992.73
2017-12-16T03:16:52.639Z,992.74
2017-12-16T03:17:52.574Z,992.74
2017-12-16T03:18:52.621Z,992.74
2017-12-16T03:19:52.556Z,992.73
2017-12-16T03:20:52.527Z,992.77
2017-12-16T03:21:52.567Z,992.77
2017-12-16T03:22:52.535Z,992.77
2017-12-16T03:23:52.658Z,992.79
2017-12-16T03:24:52.630Z,992.79
2017-12-16T03:25:52.546Z,992.83
2017-12-16T03:26:52.609Z,992.83
2017-12-16T03:27:52.548Z,992.86
2017-12-16T03:28:52.539Z,992.91
2017-12-16T03:29:52.639Z,992.87
2017-12-16T03:30:52.560Z,992.86
2017-12-16T03:31:52.583Z,992.90
2017-12-16T03:32:52.652Z,992.95
2017-12-16T03:33:52.749Z,992.94
2017-12-16T03:34:52.690Z,992.94
2017-12-16T03:35:52.682Z,992.96
2017-12-16T03:36:52.680Z,992.93
2017-12-16T03:37:52.674Z,992.97
2017-12-16T03:38:52.667Z,992.93
2017-12-16T03:39:52.585Z,992.91
2017-12-16T03:40:52.685Z,992.90
2017-12-16T03:41:52.617Z,992.96
2017-12-16T03:42:52.686Z,992.93
2017-12-16T03:43:52.690Z,992.98
2017-12-16T03:44:52.548Z,993.06
2017-12-16T03:45:52.643Z,993.07
2017-12-16T03:46:52.567Z,993.04
2017-12-16T03:47:52.689Z,993.03
2017-12-16T03:48:52.589Z,993.04
2017-12-16T03:49:52.575Z,993.08
2017-12-16T03:50:52.623Z,993.06
2017-12-16T03:51:52.700Z,993.04
2017-12-16T03:52:52.625Z,993.01
2017-12-16T03:53:52.694Z,993.03
2017-12-16T03:54:52.621Z,993.07
2017-12-16T03:55:52.697Z,993.05
2017-12-16T03:56:52.698Z,993.03
2017-12-16T03:57:52.700Z,993.02
2017-12-16T03:58:52.658Z,993.09
2017-12-16T03:59:52.697Z,993.04
2017-12-16T04:00:52.629Z,993.11
2017-12-16T04:01:52.699Z,993.08
2017-12-16T04:02:52.627Z,993.09
2017-12-16T04:03:52.699Z,993.13
2017-12-16T04:04:52.631Z,993.11
2017-12-16T04:05:52.912Z,993.13
2017-12-16T04:06:52.631Z,993.10
2017-12-16T04:07:52.703Z,993.10
2017-12-16T04:08:52.629Z,993.10
2017-12-16T04:09:52.730Z,993.18
2017-12-16T04:10:52.636Z,993.11
2017-12-16T04:11:52.705Z,993.14
2017-12-16T04:12:52.599Z,993.18
2017-12-16T04:13:52.707Z,993.23
2017-12-16T04:14:52.640Z,993.20
2017-12-16T04:15:52.707Z,993.20
2017-12-16T04:16:52.637Z,993.25
2017-12-16T04:17:52.710Z,993.22
2017-12-16T04:18:52.656Z,993.22
2017-12-16T04:19:52.665Z,993.29
2017-12-16T04:20:52.620Z,993.30
2017-12-16T04:21:52.669Z,993.30
2017-12-16T04:22:52.661Z,993.32
2017-12-16T04:23:52.659Z,993.31
2017-12-16T04:24:52.581Z,993.31
2017-12-16T04:25:52.670Z,993.32
2017-12-16T04:26:52.626Z,993.27
2017-12-16T04:27:52.664Z,993.32
2017-12-16T04:28:52.678Z,993.35
2017-12-16T04:29:52.606Z,993.34
2017-12-16T04:30:52.718Z,993.34
2017-12-16T04:31:52.654Z,993.35
2017-12-16T04:32:52.724Z,993.35
2017-12-16T04:33:52.650Z,993.34
2017-12-16T04:34:52.718Z,993.35
2017-12-16T04:35:52.647Z,993.33
2017-12-16T04:36:52.720Z,993.33
2017-12-16T04:37:52.657Z,993.41
2017-12-16T04:38:52.657Z,993.38
2017-12-16T04:39:52.725Z,993.36
2017-12-16T04:40:52.610Z,993.42
2017-12-16T04:41:52.686Z,993.40
2017-12-16T04:42:52.581Z,993.42
2017-12-16T04:43:52.578Z,993.41
2017-12-16T04:44:52.581Z,993.42
2017-12-16T04:45:52.685Z,993.45
2017-12-16T04:46:52.614Z,993.41
2017-12-16T04:47:52.706Z,993.41
2017-12-16T04:48:52.681Z,993.40
2017-12-16T04:49:52.657Z,993.44
2017-12-16T04:50:52.636Z,993.39
2017-12-16T04:51:52.746Z,993.38
2017-12-16T04:52:52.662Z,993.37
2017-12-16T04:53:52.694Z,993.37
2017-12-16T04:54:52.654Z,993.39
2017-12-16T04:55:52.621Z,993.39
2017-12-16T04:56:52.594Z,993.38
2017-12-16T04:57:52.593Z,993.45
2017-12-16T04:58:52.693Z,993.49
2017-12-16T04:59:52.619Z,993.46
2017-12-16T05:00:52.691Z,993.44
2017-12-16T05:01:52.589Z,993.50
2017-12-16T05:02:52.642Z,993.44
2017-12-16T05:03:52.716Z,993.47
2017-12-16T05:04:52.666Z,993.51
2017-12-16T05:05:52.623Z,993.49
2017-12-16T05:06:52.663Z,993.49
2017-12-16T05:07:52.699Z,993.54
2017-12-16T05:08:52.606Z,993.57
2017-12-16T05:09:52.626Z,993.59
2017-12-16T05:10:52.737Z,993.57
2017-12-16T05:11:52.692Z,993.60
2017-12-16T05:12:52.729Z,993.63
2017-12-16T05:13:52.616Z,993.64
2017-12-16T05:14:52.709Z,993.66
2017-12-16T05:15:52.647Z,993.64
2017-12-16T05:16:52.623Z,993.66
2017-12-16T05:17:52.608Z,993.62
2017-12-16T05:18:52.646Z,993.63
2017-12-16T05:19:52.732Z,993.64
2017-12-16T05:20:52.693Z,993.64
2017-12-16T05:21:52.649Z,993.66
2017-12-16T05:22:52.694Z,993.63
2017-12-16T05:23:52.691Z,993.62
2017-12-16T05:24:52.650Z,993.60
2017-12-16T05:25:52.698Z,993.56
2017-12-16T05:26:52.679Z,993.58
2017-12-16T05:27:52.654Z,993.59
2017-12-16T05:28:52.697Z,993.62
2017-12-16T05:29:52.741Z,993.68
2017-12-16T05:30:52.702Z,993.68
2017-12-16T05:31:52.632Z,993.70
2017-12-16T05:32:52.660Z,993.73
2017-12-16T05:33:52.655Z,993.76
2017-12-16T05:34:52.614Z,993.76
2017-12-16T05:35:52.682Z,993.74
2017-12-16T05:36:52.747Z,993.80
2017-12-16T05:37:52.654Z,993.80
2017-12-16T05:38:52.630Z,993.80
2017-12-16T05:39:52.658Z,993.85
2017-12-16T05:40:52.758Z,993.83
2017-12-16T05:41:52.690Z,993.86
2017-12-16T05:42:52.697Z,993.89
2017-12-16T05:43:52.692Z,993.87
2017-12-16T05:44:52.761Z,993.85
2017-12-16T05:45:52.688Z,993.87
2017-12-16T05:46:52.762Z,993.89
2017-12-16T05:47:52.762Z,993.88
2017-12-16T05:48:52.766Z,993.89
2017-12-16T05:49:52.694Z,993.87
2017-12-16T05:50:52.647Z,993.91
2017-12-16T05:51:52.651Z,993.86
2017-12-16T05:52:52.648Z,993.88
2017-12-16T05:53:52.651Z,993.90
2017-12-16T05:54:52.653Z,993.91
2017-12-16T05:55:52.629Z,993.89
2017-12-16T05:56:52.756Z,993.94
2017-12-16T05:57:52.717Z,993.95
2017-12-16T05:58:52.717Z,993.91
2017-12-16T05:59:52.632Z,993.94
2017-12-16T06:00:52.718Z,993.99
2017-12-16T06:01:52.630Z,993.96
2017-12-16T06:02:52.730Z,993.96
2017-12-16T06:03:52.637Z,993.95
2017-12-16T06:04:52.680Z,993.96
2017-12-16T06:05:52.722Z,993.96
2017-12-16T06:06:52.698Z,993.94
2017-12-16T06:07:52.736Z,993.94
2017-12-16T06:08:52.662Z,993.95
2017-12-16T06:09:52.643Z,993.95
2017-12-16T06:10:52.660Z,993.98
2017-12-16T06:11:52.667Z,993.96
2017-12-16T06:12:52.712Z,993.98
2017-12-16T06:13:52.780Z,993.93
2017-12-16T06:14:52.719Z,993.98
2017-12-16T06:15:52.782Z,993.97
2017-12-16T06:16:52.743Z,993.98
2017-12-16T06:17:52.780Z,994.03
2017-12-16T06:18:52.669Z,993.99
2017-12-16T06:19:52.768Z,994.00
2017-12-16T06:20:52.784Z,994.00
2017-12-16T06:21:52.709Z,993.98
2017-12-16T06:22:52.732Z,994.04
2017-12-16T06:23:52.663Z,994.03
2017-12-16T06:24:52.734Z,994.02
2017-12-16T06:25:52.689Z,994.06
2017-12-16T06:26:52.650Z,994.05
2017-12-16T06:27:52.777Z,994.09
2017-12-16T06:28:52.691Z,994.06
2017-12-16T06:29:52.670Z,994.09
2017-12-16T06:30:52.745Z,994.09
2017-12-16T06:31:52.667Z,994.15
2017-12-16T06:32:52.738Z,994.13
2017-12-16T06:33:52.672Z,994.11
2017-12-16T06:34:52.772Z,994.14
2017-12-16T06:35:52.673Z,994.17
2017-12-16T06:36:52.781Z,994.14
2017-12-16T06:37:52.744Z,994.17
2017-12-16T06:38:52.743Z,994.16
2017-12-16T06:39:52.792Z,994.16
2017-12-16T06:40:52.744Z,994.13
2017-12-16T06:41:52.728Z,994.15
2017-12-16T06:42:52.814Z,994.19
2017-12-16T06:43:52.729Z,994.21
2017-12-16T06:44:52.798Z,994.22
2017-12-16T06:45:52.731Z,994.24
2017-12-16T06:46:52.730Z,994.25
2017-12-16T06:47:52.798Z,994.27
2017-12-16T06:48:52.734Z,994.30
2017-12-16T06:49:52.800Z,994.33
2017-12-16T06:50:52.729Z,994.30
2017-12-16T06:51:52.799Z,994.32
2017-12-16T06:52:52.734Z,994.33
2017-12-16T06:53:52.802Z,994.33
2017-12-16T06:54:52.734Z,994.35
2017-12-16T06:55:52.802Z,994.33
2017-12-16T06:56:52.831Z,994.35
2017-12-16T06:57:52.734Z,994.34
2017-12-16T06:58:52.804Z,994.38
2017-12-16T06:59:52.807Z,994.37
2017-12-16T07:00:52.750Z,994.41
2017-12-16T07:01:52.806Z,994.40
2017-12-16T07:02:52.739Z,994.39
2017-12-16T07:03:52.809Z,994.42
2017-12-16T07:04:52.811Z,994.44
2017-12-16T07:05:52.738Z,994.46
2017-12-16T07:06:52.811Z,994.50
2017-12-16T07:07:52.812Z,994.53
2017-12-16T07:08:52.745Z,994.53
2017-12-16T07:09:52.813Z,994.55
2017-12-16T07:10:52.746Z,994.55
2017-12-16T07:11:52.815Z,994.60
2017-12-16T07:12:52.750Z,994.60
2017-12-16T07:13:52.814Z,994.62
2017-12-16T07:14:52.751Z,994.62
2017-12-16T07:15:52.815Z,994.63
2017-12-16T07:16:52.749Z,994.63
2017-12-16T07:17:52.816Z,994.65
2017-12-16T07:18:52.751Z,994.71
2017-12-16T07:19:52.820Z,994.71
2017-12-16T07:20:52.752Z,994.75
2017-12-16T07:21:52.821Z,994.79
2017-12-16T07:22:52.861Z,994.82
2017-12-16T07:23:52.752Z,994.81
2017-12-16T07:24:52.828Z,994.81
2017-12-16T07:25:52.774Z,994.86
2017-12-16T07:26:52.844Z,994.87
2017-12-16T07:27:52.753Z,994.92
2017-12-16T07:28:52.825Z,994.92
2017-12-16T07:29:52.756Z,994.89
2017-12-16T07:30:52.754Z,994.94
2017-12-16T07:31:52.828Z,994.98
2017-12-16T07:32:52.758Z,995.00
2017-12-16T07:33:52.826Z,994.95
2017-12-16T07:34:52.756Z,994.96
2017-12-16T07:35:52.828Z,994.97
2017-12-16T07:36:52.780Z,995.01
2017-12-16T07:37:52.830Z,994.97
2017-12-16T07:38:52.769Z,995.01
2017-12-16T07:39:52.830Z,995.00
2017-12-16T07:40:52.775Z,995.06
2017-12-16T07:41:52.832Z,995.09
2017-12-16T07:42:52.832Z,995.08
2017-12-16T07:43:52.763Z,995.06
2017-12-16T07:44:52.833Z,995.06
2017-12-16T07:45:52.840Z,995.06
2017-12-16T07:46:52.766Z,995.05
2017-12-16T07:47:52.840Z,995.09
2017-12-16T07:48:52.773Z,995.12
2017-12-16T07:49:52.837Z,995.10
2017-12-16T07:50:52.768Z,995.17
2017-12-16T07:51:52.837Z,995.17
2017-12-16T07:52:52.773Z,995.14
2017-12-16T07:53:52.729Z,995.18
2017-12-16T07:54:52.799Z,995.14
2017-12-16T07:55:52.840Z,995.15
2017-12-16T07:56:52.777Z,995.14
2017-12-16T07:57:52.774Z,995.18
2017-12-16T07:58:52.841Z,995.19
2017-12-16T07:59:52.770Z,995.20
2017-12-16T08:00:52.842Z,995.19
2017-12-16T08:01:52.710Z,995.22
2017-12-16T08:02:52.699Z,995.20
2017-12-16T08:03:52.731Z,995.21
2017-12-16T08:04:52.805Z,995.18
2017-12-16T08:05:52.773Z,995.21
2017-12-16T08:06:52.794Z,995.17
2017-12-16T08:07:52.802Z,995.18
2017-12-16T08:08:52.778Z,995.22
2017-12-16T08:09:52.777Z,995.22
2017-12-16T08:10:52.774Z,995.22
2017-12-16T08:11:52.803Z,995.28
2017-12-16T08:12:52.824Z,995.26
2017-12-16T08:13:52.708Z,995.27
2017-12-16T08:14:52.782Z,995.33
2017-12-16T08:15:52.781Z,995.31
2017-12-16T08:16:52.742Z,995.34
2017-12-16T08:17:52.744Z,995.34
2017-12-16T08:18:52.772Z,995.38
2017-12-16T08:19:52.765Z,995.37
2017-12-16T08:20:52.724Z,995.40
2017-12-16T08:21:52.736Z,995.37
2017-12-16T08:22:52.784Z,995.40
2017-12-16T08:23:52.856Z,995.41
2017-12-16T08:24:52.787Z,995.43
2017-12-16T08:25:52.860Z,995.43
2017-12-16T08:26:52.784Z,995.47
2017-12-16T08:27:52.859Z,995.47
2017-12-16T08:28:52.857Z,995.51
2017-12-16T08:29:52.783Z,995.53
2017-12-16T08:30:52.861Z,995.56
2017-12-16T08:31:52.795Z,995.54
2017-12-16T08:32:52.844Z,995.58
2017-12-16T08:33:52.866Z,995.60
2017-12-16T08:34:52.791Z,995.60
2017-12-16T08:35:52.861Z,995.64
2017-12-16T08:36:52.790Z,995.66
2017-12-16T08:37:52.863Z,995.68
2017-12-16T08:38:52.792Z,995.66
2017-12-16T08:39:52.885Z,995.66
2017-12-16T08:40:52.798Z,995.75
2017-12-16T08:41:52.867Z,995.74
2017-12-16T08:42:52.803Z,995.72
2017-12-16T08:43:52.829Z,995.75
2017-12-16T08:44:52.872Z,995.76
2017-12-16T08:45:52.800Z,995.80
2017-12-16T08:46:52.871Z,995.81
2017-12-16T08:47:52.797Z,995.79
2017-12-16T08:48:52.871Z,995.80
2017-12-16T08:49:52.875Z,995.79
2017-12-16T08:50:52.807Z,995.80
2017-12-16T08:51:52.740Z,995.84
2017-12-16T08:52:52.902Z,995.85
2017-12-16T08:53:52.802Z,995.82
2017-12-16T08:54:52.782Z,995.81
2017-12-16T08:55:52.741Z,995.86
2017-12-16T08:56:52.732Z,995.89
2017-12-16T08:57:52.834Z,995.92
2017-12-16T08:58:52.834Z,995.88
2017-12-16T08:59:52.804Z,995.96
2017-12-16T09:00:52.740Z,995.96
2017-12-16T09:01:52.761Z,995.97
2017-12-16T09:02:52.807Z,996.00
2017-12-16T09:03:52.787Z,995.99
2017-12-16T09:04:52.811Z,996.04
2017-12-16T09:05:52.763Z,996.04
2017-12-16T09:06:52.841Z,996.06
2017-12-16T09:07:52.882Z,996.04
2017-12-16T09:08:52.880Z,996.10
2017-12-16T09:09:52.849Z,996.12
2017-12-16T09:10:52.761Z,996.12
2017-12-16T09:11:52.815Z,996.18
2017-12-16T09:12:52.817Z,996.13
2017-12-16T09:13:52.906Z,996.16
2017-12-16T09:14:52.813Z,996.24
2017-12-16T09:15:52.885Z,996.24
2017-12-16T09:16:52.820Z,996.25
2017-12-16T09:17:52.815Z,996.25
2017-12-16T09:18:52.888Z,996.31
2017-12-16T09:19:52.821Z,996.30
2017-12-16T09:20:52.889Z,996.34
2017-12-16T09:21:52.776Z,996.34
2017-12-16T09:22:52.760Z,996.36
2017-12-16T09:23:52.854Z,996.35
2017-12-16T09:24:52.834Z,996.37
2017-12-16T09:25:52.867Z,996.34
2017-12-16T09:26:52.873Z,996.35
2017-12-16T09:27:52.748Z,996.41
2017-12-16T09:28:52.793Z,996.44
2017-12-16T09:29:52.798Z,996.49
2017-12-16T09:30:52.759Z,996.50
2017-12-16T09:31:52.858Z,996.56
2017-12-16T09:32:52.855Z,996.59
2017-12-16T09:33:52.757Z,996.57
2017-12-16T09:34:52.860Z,996.56
2017-12-16T09:35:52.861Z,996.58
2017-12-16T09:36:52.805Z,996.53
2017-12-16T09:37:52.784Z,996.57
2017-12-16T09:38:52.849Z,996.60
2017-12-16T09:39:52.879Z,996.55
2017-12-16T09:40:52.828Z,996.56
2017-12-16T09:41:52.901Z,996.60
2017-12-16T09:42:52.829Z,996.57
2017-12-16T09:43:52.905Z,996.61
2017-12-16T09:44:52.832Z,996.68
2017-12-16T09:45:52.905Z,996.66
2017-12-16T09:46:52.832Z,996.70
2017-12-16T09:47:52.908Z,996.72
2017-12-16T09:48:52.833Z,996.72
2017-12-16T09:49:52.907Z,996.72
2017-12-16T09:50:52.834Z,996.68
2017-12-16T09:51:52.819Z,996.77
2017-12-16T09:52:52.895Z,996.76
2017-12-16T09:53:52.851Z,996.73
2017-12-16T09:54:52.805Z,996.74
2017-12-16T09:55:52.851Z,996.72
2017-12-16T09:56:52.839Z,996.74
2017-12-16T09:57:52.814Z,996.74
2017-12-16T09:58:52.894Z,996.76
2017-12-16T09:59:52.794Z,996.77
2017-12-16T10:00:52.901Z,996.77
2017-12-16T10:01:52.860Z,996.77
2017-12-16T10:02:52.856Z,996.75
2017-12-16T10:03:52.791Z,996.77
2017-12-16T10:04:52.879Z,996.78
2017-12-16T10:05:52.818Z,996.79
2017-12-16T10:06:52.842Z,996.76
2017-12-16T10:07:52.816Z,996.77
2017-12-16T10:08:52.859Z,996.75
2017-12-16T10:09:52.910Z,996.76
2017-12-16T10:10:52.883Z,996.80
2017-12-16T10:11:52.918Z,996.80
2017-12-16T10:12:52.832Z,996.78
2017-12-16T10:13:52.920Z,996.75
2017-12-16T10:14:52.923Z,996.81
2017-12-16T10:15:52.851Z,996.81
2017-12-16T10:16:52.922Z,996.78
2017-12-16T10:17:52.854Z,996.77
2017-12-16T10:18:52.926Z,996.82
2017-12-16T10:19:52.853Z,996.81
2017-12-16T10:20:52.925Z,996.92
2017-12-16T10:21:52.851Z,996.93
2017-12-16T10:22:52.928Z,996.95
2017-12-16T10:23:52.864Z,996.95
2017-12-16T10:24:52.931Z,996.97
2017-12-16T10:25:52.854Z,996.97
2017-12-16T10:26:52.929Z,997.02
2017-12-16T10:27:52.856Z,997.03
2017-12-16T10:28:52.930Z,997.08
2017-12-16T10:29:52.856Z,997.02
2017-12-16T10:30:52.931Z,997.05
2017-12-16T10:31:52.835Z,997.07
2017-12-16T10:32:52.838Z,997.12
2017-12-16T10:33:52.907Z,997.13
2017-12-16T10:34:52.840Z,997.09
2017-12-16T10:35:52.861Z,997.09
2017-12-16T10:36:52.789Z,997.10
2017-12-16T10:37:52.885Z,997.10
2017-12-16T10:38:52.790Z,997.08
2017-12-16T10:39:52.805Z,997.15
2017-12-16T10:40:52.800Z,997.11
2017-12-16T10:41:52.707Z,997.19
2017-12-16T10:42:52.703Z,997.10
2017-12-16T10:43:52.706Z,997.11
2017-12-16T10:44:52.701Z,997.15
2017-12-16T10:45:52.701Z,997.14
2017-12-16T10:46:52.706Z,997.15
2017-12-16T10:47:52.707Z,997.16
2017-12-16T10:48:52.705Z,997.17
2017-12-16T10:49:52.708Z,997.16
2017-12-16T10:50:52.710Z,997.17
2017-12-16T10:51:52.945Z,997.15
2017-12-16T10:52:52.869Z,997.12
2017-12-16T10:53:52.945Z,997.16
2017-12-16T10:54:52.870Z,997.19
2017-12-16T10:55:52.948Z,997.20
2017-12-16T10:56:52.880Z,997.22
2017-12-16T10:57:52.949Z,997.27
2017-12-16T10:58:52.948Z,997.24
2017-12-16T10:59:52.887Z,997.24
2017-12-16T11:00:52.880Z,997.25
2017-12-16T11:01:52.875Z,997.24
2017-12-16T11:02:52.952Z,997.23
2017-12-16T11:03:52.952Z,997.30
2017-12-16T11:04:52.888Z,997.29
2017-12-16T11:05:52.951Z,997.30
2017-12-16T11:06:52.880Z,997.31
2017-12-16T11:07:52.953Z,997.24
2017-12-16T11:08:52.877Z,997.27
2017-12-16T11:09:52.956Z,997.31
2017-12-16T11:10:52.881Z,997.27
2017-12-16T11:11:52.957Z,997.29
2017-12-16T11:12:52.890Z,997.30
2017-12-16T11:13:52.958Z,997.31
2017-12-16T11:14:52.887Z,997.33
2017-12-16T11:15:52.959Z,997.28
2017-12-16T11:16:52.889Z,997.33
2017-12-16T11:17:52.962Z,997.31
2017-12-16T11:18:52.890Z,997.32
2017-12-16T11:19:52.960Z,997.32
2017-12-16T11:20:52.894Z,997.37
2017-12-16T11:21:52.959Z,997.35
2017-12-16T11:22:52.886Z,997.36
2017-12-16T11:23:52.963Z,997.34
2017-12-16T11:24:52.890Z,997.38
2017-12-16T11:25:52.890Z,997.33
2017-12-16T11:26:52.895Z,997.36
2017-12-16T11:27:52.966Z,997.41
2017-12-16T11:28:52.897Z,997.35
2017-12-16T11:29:52.968Z,997.38
2017-12-16T11:30:52.906Z,997.42
2017-12-16T11:31:52.967Z,997.40
2017-12-16T11:32:52.976Z,997.40
2017-12-16T11:33:52.969Z,997.46
2017-12-16T11:34:52.976Z,997.41
2017-12-16T11:35:52.895Z,997.38
2017-12-16T11:36:52.970Z,997.39
2017-12-16T11:37:52.903Z,997.36
2017-12-16T11:38:52.974Z,997.40
2017-12-16T11:39:52.904Z,997.38
2017-12-16T11:40:52.974Z,997.39
2017-12-16T11:41:52.902Z,997.42
2017-12-16T11:42:52.974Z,997.48
2017-12-16T11:43:52.907Z,997.47
2017-12-16T11:44:52.867Z,997.52
2017-12-16T11:45:52.908Z,997.48
2017-12-16T11:46:52.978Z,997.49
2017-12-16T11:47:52.913Z,997.49
2017-12-16T11:48:52.978Z,997.48
2017-12-16T11:49:52.922Z,997.43
2017-12-16T11:50:52.981Z,997.46
2017-12-16T11:51:52.921Z,997.46
2017-12-16T11:52:52.849Z,997.47
2017-12-16T11:53:52.942Z,997.46
2017-12-16T11:54:52.868Z,997.52
2017-12-16T11:55:52.888Z,997.52
2017-12-16T11:56:52.943Z,997.50
2017-12-16T11:57:52.926Z,997.55
2017-12-16T11:58:52.849Z,997.54
2017-12-16T11:59:52.947Z,997.58
2017-12-16T12:00:52.838Z,997.55
2017-12-16T12:01:52.984Z,997.58
2017-12-16T12:02:52.921Z,997.61
2017-12-16T12:03:52.913Z,997.59
2017-12-16T12:04:52.987Z,997.61
2017-12-16T12:05:52.920Z,997.57
2017-12-16T12:06:52.989Z,997.60
2017-12-16T12:07:52.916Z,997.64
2017-12-16T12:08:52.925Z,997.58
2017-12-16T12:09:52.996Z,997.61
2017-12-16T12:10:52.915Z,997.61
2017-12-16T12:11:52.996Z,997.62
2017-12-16T12:12:52.917Z,997.63
2017-12-16T12:13:52.993Z,997.62
2017-12-16T12:14:52.914Z,997.64
2017-12-16T12:15:52.920Z,997.57
2017-12-16T12:16:52.997Z,997.54
2017-12-16T12:17:52.923Z,997.57
2017-12-16T12:18:52.993Z,997.63
2017-12-16T12:19:52.947Z,997.68
2017-12-16T12:20:52.999Z,997.64
2017-12-16T12:21:52.762Z,997.65
2017-12-16T12:22:52.763Z,997.67
2017-12-16T12:23:52.766Z,997.69
2017-12-16T12:24:52.764Z,997.68
2017-12-16T12:25:52.765Z,997.71
2017-12-16T12:26:52.765Z,997.68
2017-12-16T12:27:52.766Z,997.72
2017-12-16T12:28:52.767Z,997.76